»·PEaware :: N653AW KSBP-KFAT

N653AW :: KSBP-KFAT

FLIGHT INFORMATION

Flight Status: Arrived
Operator: Privately registered:
United States
More flights under this callsign
Pilot: Sergei F. (8485)
Aircraft: AIRBUS A320
(A320)
More flights by this aircraft type
Origin: KSBP San Luis Co Regl
United States
Destination: KFAT Fresno Yosemite Intl
United States
More flights between these airports :: More routes between these airports
Route: CREPE3 PRB ALTTA
File this flight plan on PilotEdge
Remarks:
Altitude:
(Current/Filed)
15,000ft
Speed:
(Current/Filed)
400kts
Departed: 31-Jul-20 08:28 PM
Arrived: 31-Jul-20 08:54 PM
Distance/Time
Traveled:
102nm/0:26
Distance/Time
To Go:
Arrived

Flight Plot

Page will automatically refresh every two minutes.


Map Options




Map Legend


Flown Route
Filed Route
Departure Airport
Arrival Airport
Navaid (VOR, NDB)
Fix

Horizontal Profiles

Position Reports

Time Latitude Longitude Heading Altitude Ground
Speed
31-Jul-20 19:50 35.237933 -120.638323 63 221ft 0kts
31-Jul-20 19:51 35.237933 -120.638323 63 221ft 0kts
31-Jul-20 19:52 35.237933 -120.638323 63 221ft 0kts
31-Jul-20 19:53 35.237933 -120.638323 63 221ft 0kts
31-Jul-20 19:54 35.237933 -120.638323 63 221ft 0kts
31-Jul-20 19:55 35.237933 -120.638323 63 221ft 0kts
31-Jul-20 19:56 35.237933 -120.638323 63 221ft 0kts
31-Jul-20 19:57 35.237933 -120.638323 63 221ft 0kts
31-Jul-20 19:58 35.237933 -120.638323 63 221ft 0kts
31-Jul-20 19:59 35.237933 -120.638323 63 221ft 0kts
31-Jul-20 20:00 35.237933 -120.638323 63 221ft 0kts
31-Jul-20 20:01 35.237933 -120.638323 63 221ft 0kts
31-Jul-20 20:02 35.237933 -120.638323 63 221ft 0kts
31-Jul-20 20:03 35.237933 -120.638323 63 221ft 0kts
31-Jul-20 20:04 35.237933 -120.638323 63 221ft 0kts
31-Jul-20 20:05 35.237933 -120.638323 63 221ft 0kts
31-Jul-20 20:06 35.237933 -120.638323 63 221ft 0kts
31-Jul-20 20:07 35.237933 -120.638323 63 221ft 0kts
31-Jul-20 20:08 35.237933 -120.638323 63 221ft 0kts
31-Jul-20 20:09 35.237933 -120.638323 63 221ft 0kts
31-Jul-20 20:10 35.237933 -120.638323 63 221ft 0kts
31-Jul-20 20:11 35.237933 -120.638323 63 221ft 0kts
31-Jul-20 20:12 35.237933 -120.638323 63 221ft 0kts
31-Jul-20 20:13 35.237933 -120.638323 63 221ft 0kts
31-Jul-20 20:14 35.237933 -120.638323 63 221ft 0kts
31-Jul-20 20:15 35.237933 -120.638324 63 221ft 0kts
31-Jul-20 20:16 35.237875 -120.638473 57 221ft 2kts
31-Jul-20 20:17 35.237399 -120.638351 279 221ft 2kts
31-Jul-20 20:18 35.237394 -120.637617 270 221ft 2kts
31-Jul-20 20:19 35.237519 -120.637277 210 221ft 1kts
31-Jul-20 20:20 35.237528 -120.637271 211 221ft 0kts
31-Jul-20 20:21 35.237528 -120.637271 211 221ft 0kts
31-Jul-20 20:22 35.237314 -120.637439 213 221ft 7kts
31-Jul-20 20:23 35.235857 -120.636508 124 221ft 11kts
31-Jul-20 20:24 35.234007 -120.633281 124 221ft 8kts
31-Jul-20 20:25 35.233290 -120.632318 180 221ft 3kts
31-Jul-20 20:26 35.232933 -120.633279 304 221ft 0kts
31-Jul-20 20:27 35.248474 -120.660055 305 1499ft 152kts
31-Jul-20 20:28 35.276609 -120.708448 303 3916ft 217kts
31-Jul-20 20:29 35.313116 -120.772579 304 7518ft 237kts
31-Jul-20 20:30 35.354774 -120.835702 333 9017ft 245kts
31-Jul-20 20:31 35.426389 -120.807607 28 10857ft 316kts
31-Jul-20 20:32 35.502603 -120.752659 29 14006ft 331kts
31-Jul-20 20:33 35.588594 -120.689064 29 14975ft 397kts
31-Jul-20 20:34 35.686415 -120.607640 47 14999ft 438kts
31-Jul-20 20:35 35.764974 -120.492582 48 14991ft 436kts
31-Jul-20 20:36 35.843711 -120.377913 48 14992ft 437kts
31-Jul-20 20:37 35.925412 -120.268250 31 14978ft 436kts
31-Jul-20 20:38 36.002484 -120.153176 52 14954ft 438kts
31-Jul-20 20:39 36.077574 -120.037994 49 14599ft 409kts
31-Jul-20 20:40 36.146229 -119.935972 49 13166ft 377kts
31-Jul-20 20:41 36.221157 -119.851434 23 11006ft 359kts
31-Jul-20 20:42 36.304885 -119.802613 23 9805ft 292kts
31-Jul-20 20:43 36.372603 -119.761994 23 8670ft 258kts
31-Jul-20 20:44 36.436170 -119.723278 23 6974ft 251kts
31-Jul-20 20:45 36.497721 -119.685470 23 5296ft 243kts
31-Jul-20 20:46 36.556311 -119.649146 23 4094ft 219kts
31-Jul-20 20:47 36.607546 -119.616704 23 3131ft 201kts
31-Jul-20 20:48 36.656035 -119.600369 350 2810ft 172kts
31-Jul-20 20:49 36.702694 -119.609195 341 1977ft 159kts
31-Jul-20 20:50 36.732976 -119.642305 304 1272ft 137kts
31-Jul-20 20:51 36.755385 -119.680153 306 832ft 136kts
31-Jul-20 20:52 36.776182 -119.716392 305 337ft 73kts
31-Jul-20 20:53 36.780126 -119.723589 256 337ft 8kts
31-Jul-20 20:54 36.777890 -119.725564 175 337ft 9kts
31-Jul-20 20:55 36.775862 -119.722321 124 334ft 14kts
31-Jul-20 20:56 36.773500 -119.719626 156 334ft 8kts
31-Jul-20 20:57 36.772221 -119.717124 125 334ft 9kts
31-Jul-20 20:58 36.771243 -119.717483 300 333ft 3kts
31-Jul-20 20:59 36.771403 -119.717780 303 333ft 0kts
31-Jul-20 21:00 36.771402 -119.717779 303 333ft 0kts
31-Jul-20 21:01 36.771402 -119.717779 303 333ft 0kts
31-Jul-20 21:02 36.771402 -119.717779 303 333ft 0kts
31-Jul-20 21:03 36.771402 -119.717779 303 333ft 0kts
31-Jul-20 21:04 36.771402 -119.717779 303 333ft 0kts
31-Jul-20 21:05 36.771402 -119.717779 303 333ft 0kts
31-Jul-20 21:06 36.771402 -119.717779 303 333ft 0kts
31-Jul-20 21:07 36.771402 -119.717779 303 333ft 0kts
31-Jul-20 21:08 36.771402 -119.717779 303 333ft 0kts

Navigation Log

Ident Type
Flight plan parsing failed, navigation log unavailable